Time;durP1;ratioP1;P1;durP2;ratioP2;P2;SDS_P1;SDS_P2;PMS_P1;PMS_P2;Temp;Humidity;BMP_temperature;BMP_pressure;BME280_temperature;BME280_humidity;BME280_pressure;Samples;Min_cycle;Max_cycle;Signal;HPM_P1;HPM_P2
2023/07/01 00:02:10;;;;;;;4.45;1.73;;;;;;;17.83;53.46;100677.53;4989081;28;20442;-68
2023/07/01 00:04:35;;;;;;;5.15;2.20;;;;;;;17.80;53.69;100666.84;4989020;28;20067;-68
2023/07/01 00:07:00;;;;;;;3.53;1.90;;;;;;;17.80;53.98;100664.09;4998760;28;20030;-68
2023/07/01 00:09:26;;;;;;;8.05;2.35;;;;;;;17.83;54.94;100668.41;5006550;28;20038;-67
2023/07/01 00:11:53;;;;;;;10.48;2.33;;;;;;;17.81;53.21;100662.19;5007821;28;20080;-67
2023/07/01 00:14:18;;;;;;;7.63;1.77;;;;;;;17.79;53.94;100662.38;5001756;28;20447;-68
2023/07/01 00:16:44;;;;;;;4.75;2.20;;;;;;;17.79;54.93;100654.13;4989556;28;20038;-67
2023/07/01 00:19:09;;;;;;;2.90;1.80;;;;;;;17.78;54.19;100655.16;4988785;28;20416;-69
2023/07/01 00:21:35;;;;;;;5.20;1.80;;;;;;;17.75;54.87;100643.59;4987957;28;20096;-69
2023/07/01 00:24:00;;;;;;;5.95;2.03;;;;;;;17.74;56.08;100639.13;4987442;28;20076;-68
2023/07/01 00:26:25;;;;;;;7.72;1.98;;;;;;;17.76;55.50;100637.06;4988134;28;20493;-68
2023/07/01 00:28:52;;;;;;;4.28;1.95;;;;;;;17.75;55.29;100640.84;4988455;28;20454;-67
2023/07/01 00:31:18;;;;;;;4.43;2.03;;;;;;;17.75;54.40;100641.69;4988268;28;20034;-67
2023/07/01 00:33:44;;;;;;;6.25;1.92;;;;;;;17.75;55.38;100632.59;5003720;28;20031;-67
2023/07/01 00:36:09;;;;;;;4.55;2.00;;;;;;;17.75;54.90;100627.09;4987788;28;20041;-69
2023/07/01 00:38:35;;;;;;;7.60;2.53;;;;;;;17.72;55.62;100624.59;4986474;28;20072;-67
2023/07/01 00:41:01;;;;;;;7.53;2.20;;;;;;;17.69;55.73;100617.56;4985885;28;20030;-68
2023/07/01 00:43:27;;;;;;;3.88;1.88;;;;;;;17.70;55.82;100616.53;4986767;28;20137;-67
2023/07/01 00:45:52;;;;;;;8.07;2.30;;;;;;;17.69;56.36;100614.81;4988720;28;20105;-68
2023/07/01 00:48:28;;;;;;;5.30;2.10;;;;;;;17.68;56.61;100607.59;4996058;28;20482;-67
2023/07/01 00:50:54;;;;;;;6.35;2.30;;;;;;;17.67;56.51;100602.22;5006025;28;20184;-67
2023/07/01 00:53:20;;;;;;;5.90;2.35;;;;;;;17.66;56.19;100606.88;5004867;28;20096;-68
2023/07/01 00:55:46;;;;;;;4.40;2.10;;;;;;;17.65;56.96;100602.41;5002111;28;20057;-68
2023/07/01 00:58:11;;;;;;;3.63;2.15;;;;;;;17.66;57.20;100601.38;4988869;28;20438;-67
2023/07/01 01:00:37;;;;;;;11.38;2.22;;;;;;;17.66;57.94;100601.38;5003268;28;20485;-67
2023/07/01 01:03:37;;;;;;;5.53;2.63;;;;;;;17.64;57.85;100597.06;4988242;28;20134;-68
2023/07/01 01:06:19;;;;;;;8.43;2.20;;;;;;;17.59;57.66;100598.41;5002414;28;20066;-67
2023/07/01 01:09:10;;;;;;;4.38;2.33;;;;;;;17.59;58.28;100597.56;4988838;28;20413;-67
2023/07/01 01:11:38;;;;;;;10.93;2.53;;;;;;;17.58;59.16;100587.59;4987387;28;20163;-67
2023/07/01 01:14:05;;;;;;;8.35;2.30;;;;;;;17.58;59.49;100590.34;4987626;28;20046;-67
2023/07/01 01:16:30;;;;;;;8.13;2.08;;;;;;;17.56;58.60;100584.13;5004746;28;20026;-68
2023/07/01 01:18:58;;;;;;;3.85;2.13;;;;;;;17.54;60.00;100577.94;4983638;28;20032;-68
2023/07/01 01:21:27;;;;;;;4.15;2.20;;;;;;;17.54;59.52;100577.94;4986595;28;20054;-68
2023/07/01 01:23:58;;;;;;;9.13;2.53;;;;;;;17.55;59.23;100577.75;4987163;28;20038;-68
2023/07/01 01:26:27;;;;;;;7.33;2.97;;;;;;;17.54;60.02;100573.28;4987158;28;20129;-68
2023/07/01 01:28:54;;;;;;;4.85;2.00;;;;;;;17.54;60.34;100570.53;4988034;28;20070;-68
2023/07/01 01:31:20;;;;;;;4.20;1.90;;;;;;;17.54;60.10;100556.78;4988024;28;20089;-67
2023/07/01 01:33:46;;;;;;;10.05;2.70;;;;;;;17.54;59.65;100562.28;5003046;28;20030;-67
2023/07/01 01:36:26;;;;;;;5.20;2.13;;;;;;;17.52;60.37;100563.47;4990176;28;20034;-68
2023/07/01 01:38:53;;;;;;;5.88;1.85;;;;;;;17.51;61.17;100562.59;4991928;28;20125;-67
2023/07/01 01:41:30;;;;;;;8.05;2.38;;;;;;;17.50;60.42;100562.78;4990888;28;20375;-67
2023/07/01 01:44:03;;;;;;;9.13;2.38;;;;;;;17.49;60.88;100553.66;5006598;28;20100;-68
2023/07/01 01:46:31;;;;;;;8.73;2.78;;;;;;;17.47;61.40;100557.59;5009160;28;20101;-68
2023/07/01 01:49:02;;;;;;;4.07;2.22;;;;;;;17.47;61.12;100555.69;4991919;28;20034;-67
2023/07/01 01:51:28;;;;;;;6.80;2.38;;;;;;;17.49;62.07;100550.06;4991434;28;20038;-67
2023/07/01 01:53:55;;;;;;;3.28;2.15;;;;;;;17.44;62.81;100545.03;4989729;28;20391;-68
2023/07/01 01:56:21;;;;;;;5.78;2.22;;;;;;;17.43;63.03;100540.53;4991157;28;20042;-67
2023/07/01 01:58:47;;;;;;;6.60;2.35;;;;;;;17.44;63.11;100541.41;5006225;28;20049;-68
2023/07/01 02:01:13;;;;;;;9.20;2.40;;;;;;;17.45;63.54;100538.50;5006726;28;20034;-68
2023/07/01 02:03:38;;;;;;;6.95;2.90;;;;;;;17.41;63.98;100534.34;4991486;28;20386;-67
2023/07/01 02:06:04;;;;;;;5.30;2.53;;;;;;;17.41;64.44;100533.50;4989592;28;20112;-67
2023/07/01 02:08:30;;;;;;;5.68;2.17;;;;;;;17.41;64.63;100536.25;4989129;28;20038;-68
2023/07/01 02:10:55;;;;;;;5.40;2.35;;;;;;;17.39;64.80;100539.13;5005394;28;20102;-67
2023/07/01 02:13:21;;;;;;;6.95;2.50;;;;;;;17.39;65.14;100530.88;5005855;28;20089;-68
2023/07/01 02:15:46;;;;;;;5.50;2.20;;;;;;;17.38;64.39;100529.19;4996068;28;20029;-67
2023/07/01 02:18:11;;;;;;;4.53;2.65;;;;;;;17.38;65.46;100525.56;4991781;28;20509;-68
2023/07/01 02:20:37;;;;;;;7.38;2.53;;;;;;;17.35;66.20;100524.03;4990660;28;20081;-68
2023/07/01 02:23:02;;;;;;;5.95;2.70;;;;;;;17.33;65.99;100524.16;4990323;28;20073;-68
2023/07/01 02:25:27;;;;;;;10.32;2.88;;;;;;;17.33;67.29;100513.16;5005761;28;20405;-68
2023/07/01 02:27:53;;;;;;;8.90;2.78;;;;;;;17.30;67.61;100515.41;4990560;28;20050;-66
2023/07/01 02:30:18;;;;;;;5.97;2.47;;;;;;;17.20;69.83;100501.75;5005441;28;20026;-67
2023/07/01 02:32:44;;;;;;;4.00;2.50;;;;;;;17.13;69.92;100503.44;5008697;28;20038;-68
2023/07/01 02:35:09;;;;;;;7.13;2.60;;;;;;;17.09;71.11;100504.78;5008462;28;20045;-68
2023/07/01 02:37:34;;;;;;;4.43;2.35;;;;;;;17.03;72.33;100500.78;5006078;28;20810;-67
2023/07/01 02:40:00;;;;;;;5.70;2.50;;;;;;;16.98;72.92;100496.81;4990157;28;20046;-70
2023/07/01 02:42:26;;;;;;;7.20;2.83;;;;;;;16.92;72.21;100491.94;5005145;28;20042;-68
2023/07/01 02:44:51;;;;;;;9.50;3.00;;;;;;;16.90;73.41;100497.59;5004992;28;20068;-67
2023/07/01 02:47:18;;;;;;;4.20;2.40;;;;;;;16.82;74.99;100494.78;4992737;28;20038;-68
2023/07/01 02:49:43;;;;;;;11.20;2.92;;;;;;;16.82;75.40;100487.41;5005354;28;20066;-68
2023/07/01 02:52:10;;;;;;;6.00;2.47;;;;;;;16.80;76.38;100483.09;4990117;28;20018;-67
2023/07/01 02:54:39;;;;;;;7.05;2.35;;;;;;;16.77;76.43;100491.66;4989639;28;20565;-67
2023/07/01 02:57:09;;;;;;;3.90;2.08;;;;;;;16.73;77.80;100482.88;4990878;28;20046;-67
2023/07/01 02:59:36;;;;;;;5.50;2.25;;;;;;;16.71;78.79;100484.03;5008319;28;20041;-67
2023/07/01 03:02:05;;;;;;;4.95;2.38;;;;;;;16.65;79.50;100480.03;4997646;28;20129;-69
2023/07/01 03:04:31;;;;;;;8.00;2.55;;;;;;;16.60;79.58;100482.41;4989820;28;20034;-68
2023/07/01 03:06:56;;;;;;;7.68;2.55;;;;;;;16.53;81.83;100478.56;5006174;28;20104;-67
2023/07/01 03:09:22;;;;;;;5.20;2.47;;;;;;;16.48;81.34;100478.19;5007752;28;20548;-68
2023/07/01 03:11:48;;;;;;;4.22;2.30;;;;;;;16.46;81.91;100477.44;4990572;28;20058;-68
2023/07/01 03:14:13;;;;;;;5.78;2.15;;;;;;;16.44;82.70;100477.63;4990445;28;20038;-68
2023/07/01 03:16:41;;;;;;;5.45;2.50;;;;;;;16.40;82.97;100470.72;4994319;28;20040;-70
2023/07/01 03:19:08;;;;;;;5.88;2.58;;;;;;;16.38;83.26;100469.16;4990059;28;20466;-67
2023/07/01 03:21:34;;;;;;;6.57;2.60;;;;;;;16.35;84.27;100467.59;5004020;28;20034;-68
2023/07/01 03:24:00;;;;;;;5.20;2.63;;;;;;;16.29;83.94;100462.72;5004056;28;20431;-67
2023/07/01 03:26:25;;;;;;;3.60;2.30;;;;;;;16.26;85.04;100463.91;4989396;28;20047;-66
2023/07/01 03:28:53;;;;;;;5.25;2.28;;;;;;;16.23;84.91;100456.00;4988521;28;20038;-68
2023/07/01 03:31:20;;;;;;;8.65;2.60;;;;;;;16.23;84.91;100456.00;4988676;28;20470;-67
2023/07/01 03:33:46;;;;;;;4.45;2.35;;;;;;;16.23;85.04;100457.88;4989288;28;20027;-71
2023/07/01 03:36:11;;;;;;;6.68;2.38;;;;;;;16.22;85.52;100450.66;4989855;28;20089;-68
2023/07/01 03:38:37;;;;;;;5.93;2.42;;;;;;;16.20;86.05;100447.22;5004107;28;20497;-68
2023/07/01 03:41:02;;;;;;;4.68;2.50;;;;;;;16.19;86.90;100440.84;4988762;28;20041;-67
2023/07/01 03:43:28;;;;;;;4.95;2.58;;;;;;;16.18;86.58;100444.63;4989337;28;20106;-68
2023/07/01 03:45:56;;;;;;;5.88;2.45;;;;;;;16.15;87.72;100455.06;5004350;28;20049;-68
2023/07/01 03:48:22;;;;;;;5.28;2.38;;;;;;;16.10;88.63;100446.44;5012258;28;20059;-66
2023/07/01 03:50:47;;;;;;;4.63;2.55;;;;;;;16.06;88.78;100448.63;4995626;28;20465;-69
2023/07/01 03:53:12;;;;;;;5.25;2.50;;;;;;;16.02;90.54;100434.34;4989378;28;20379;-67
2023/07/01 03:55:37;;;;;;;3.83;2.80;;;;;;;15.95;90.97;100435.16;4988326;28;20121;-67
2023/07/01 03:58:04;;;;;;;4.53;2.95;;;;;;;15.84;92.07;100433.47;5002939;28;20135;-67
2023/07/01 04:00:29;;;;;;;5.50;2.78;;;;;;;15.82;91.53;100441.84;4988912;28;20058;-67
2023/07/01 04:02:55;;;;;;;5.00;2.72;;;;;;;15.79;91.99;100428.44;5003613;28;20035;-68
2023/07/01 04:05:20;;;;;;;6.30;2.85;;;;;;;15.81;92.85;100425.56;4988583;28;20134;-67
2023/07/01 04:07:48;;;;;;;4.45;2.95;;;;;;;15.76;93.72;100423.28;4988897;28;20057;-67
2023/07/01 04:10:14;;;;;;;4.00;3.15;;;;;;;15.76;93.73;100433.38;4988605;28;20030;-67
2023/07/01 04:12:39;;;;;;;4.80;3.00;;;;;;;15.77;94.82;100421.41;5007946;28;20042;-66
2023/07/01 04:15:11;;;;;;;3.95;2.83;;;;;;;15.74;93.57;100417.06;5008200;28;20648;-68
2023/07/01 04:17:41;;;;;;;3.90;2.63;;;;;;;15.73;95.29;100420.84;4992354;28;20101;-68
2023/07/01 04:20:07;;;;;;;4.40;2.65;;;;;;;15.68;95.95;100417.72;4988469;28;20042;-68
2023/07/01 04:22:32;;;;;;;6.10;2.95;;;;;;;15.67;96.63;100409.66;4988314;28;20018;-68
2023/07/01 04:24:58;;;;;;;4.25;2.38;;;;;;;15.69;95.66;100402.09;4988355;28;20483;-68
2023/07/01 04:27:23;;;;;;;3.35;2.50;;;;;;;15.71;96.84;100409.16;5003253;28;20046;-68
2023/07/01 04:29:48;;;;;;;5.00;3.00;;;;;;;15.71;97.38;100395.44;4988521;28;20066;-68
2023/07/01 04:32:14;;;;;;;6.50;3.15;;;;;;;15.69;97.10;100391.13;4989671;28;20074;-68
2023/07/01 04:34:39;;;;;;;4.57;2.38;;;;;;;15.68;98.14;100395.78;4988336;28;20034;-68
2023/07/01 04:37:04;;;;;;;3.42;2.33;;;;;;;15.68;97.73;100404.00;4987765;28;20563;-68
2023/07/01 04:39:30;;;;;;;2.85;2.55;;;;;;;15.65;nan;100395.22;5002904;28;20383;-68
2023/07/01 04:41:55;;;;;;;4.38;2.65;;;;;;;15.61;98.66;100399.25;4987966;28;20066;-69
2023/07/01 04:44:24;;;;;;;4.45;2.78;;;;;;;15.62;99.13;100396.38;4988408;28;20022;-68
2023/07/01 04:46:50;;;;;;;3.30;2.35;;;;;;;15.67;98.28;100387.72;4988564;28;20030;-68
2023/07/01 04:49:15;;;;;;;2.90;2.63;;;;;;;15.67;98.74;100387.72;4988825;28;20536;-69
2023/07/01 04:51:41;;;;;;;2.83;2.53;;;;;;;15.68;99.50;100387.53;4988216;28;20113;-68
2023/07/01 04:54:07;;;;;;;4.10;2.28;;;;;;;15.70;99.09;100384.63;5002481;28;20113;-68
2023/07/01 04:56:32;;;;;;;3.22;2.45;;;;;;;15.64;99.94;100379.78;5002430;28;20077;-68
2023/07/01 04:58:57;;;;;;;3.30;2.65;;;;;;;15.62;100.00;100370.78;4988126;28;20042;-68
2023/07/01 05:01:23;;;;;;;3.42;2.45;;;;;;;15.64;100.00;100372.41;4988428;28;20057;-68
2023/07/01 05:03:48;;;;;;;4.13;2.17;;;;;;;15.69;99.25;100375.53;4987970;28;20034;-67
2023/07/01 05:06:14;;;;;;;2.95;2.50;;;;;;;15.70;100.00;100363.53;5003302;28;20038;-67
2023/07/01 05:08:39;;;;;;;4.10;2.40;;;;;;;15.73;99.63;100370.63;4987623;28;20105;-68
2023/07/01 05:11:05;;;;;;;4.60;2.55;;;;;;;15.74;100.00;100367.72;4987234;28;20073;-68
2023/07/01 05:13:30;;;;;;;3.58;2.47;;;;;;;15.77;100.00;100372.91;4987760;28;20458;-68
2023/07/01 05:15:55;;;;;;;4.03;2.42;;;;;;;15.76;99.91;100375.78;4988003;28;20073;-67
2023/07/01 05:18:21;;;;;;;3.80;2.42;;;;;;;15.77;100.00;100366.53;5003285;28;20038;-68
2023/07/01 05:20:46;;;;;;;3.45;2.55;;;;;;;15.77;100.00;100370.16;4987468;28;20030;-69
2023/07/01 05:23:12;;;;;;;5.82;2.47;;;;;;;15.79;100.00;100361.75;5002704;28;20031;-68
2023/07/01 05:25:37;;;;;;;4.63;2.75;;;;;;;15.82;100.00;100365.06;4987031;28;20078;-68
2023/07/01 05:28:02;;;;;;;2.72;2.28;;;;;;;15.80;100.00;100374.44;4987444;28;20065;-68
2023/07/01 05:30:28;;;;;;;4.07;2.42;;;;;;;15.79;100.00;100369.97;4987785;28;20030;-68
2023/07/01 05:32:53;;;;;;;3.30;2.50;;;;;;;15.78;99.99;100365.53;4988133;28;20027;-67
2023/07/01 05:35:19;;;;;;;2.25;2.05;;;;;;;15.81;100.00;100366.09;4987368;28;20038;-67
2023/07/01 05:37:44;;;;;;;3.60;2.15;;;;;;;15.82;100.00;100364.19;4988158;28;20493;-68
2023/07/01 05:40:11;;;;;;;3.83;2.60;;;;;;;15.84;99.65;100361.28;4986881;28;20478;-68
2023/07/01 05:42:37;;;;;;;4.15;2.38;;;;;;;15.82;100.00;100356.81;5002283;28;20438;-67
2023/07/01 05:45:03;;;;;;;4.78;2.63;;;;;;;15.83;100.00;100365.91;4988326;28;20062;-68
2023/07/01 05:47:28;;;;;;;5.20;2.60;;;;;;;15.77;100.00;100355.56;4993270;28;20366;-68
2023/07/01 05:49:53;;;;;;;4.72;2.17;;;;;;;15.79;100.00;100359.00;5007308;28;20091;-68
2023/07/01 05:52:19;;;;;;;2.92;2.47;;;;;;;15.79;100.00;100359.00;5006517;28;20038;-68
2023/07/01 05:54:44;;;;;;;4.32;2.72;;;;;;;15.85;100.00;100360.25;4990204;28;20042;-67
2023/07/01 05:57:09;;;;;;;4.10;2.60;;;;;;;15.83;100.00;100357.69;4987075;28;20096;-67
2023/07/01 05:59:35;;;;;;;4.03;2.45;;;;;;;15.85;100.00;100361.13;4987794;28;20056;-68
2023/07/01 06:02:00;;;;;;;4.00;2.05;;;;;;;15.88;100.00;100354.47;4985830;28;20102;-68
2023/07/01 06:04:25;;;;;;;5.22;2.80;;;;;;;15.89;100.00;100350.69;4985918;28;20096;-67
2023/07/01 06:06:51;;;;;;;3.28;2.30;;;;;;;15.89;100.00;100353.44;4985338;28;20038;-68
2023/07/01 06:09:16;;;;;;;4.05;2.97;;;;;;;15.89;100.00;100345.22;4986877;28;20487;-69
2023/07/01 06:11:42;;;;;;;2.80;2.50;;;;;;;15.95;100.00;100345.47;4987262;28;20126;-68
2023/07/01 06:14:07;;;;;;;4.95;2.53;;;;;;;15.96;100.00;100340.84;5002230;28;20089;-68
2023/07/01 06:16:32;;;;;;;4.00;2.70;;;;;;;16.00;100.00;100347.72;4986744;28;20046;-68
2023/07/01 06:18:58;;;;;;;2.72;2.47;;;;;;;16.02;100.00;100341.03;4987396;28;20264;-67
2023/07/01 06:21:24;;;;;;;3.75;2.22;;;;;;;16.06;100.00;100345.19;5002621;28;20376;-68
2023/07/01 06:23:53;;;;;;;6.15;2.30;;;;;;;16.07;100.00;100335.09;5005149;28;20116;-68
2023/07/01 06:26:18;;;;;;;2.75;2.35;;;;;;;16.13;100.00;100339.91;5007974;28;20041;-67
2023/07/01 06:28:44;;;;;;;6.32;2.67;;;;;;;16.15;100.00;100348.88;5011103;28;20034;-67
2023/07/01 06:31:10;;;;;;;3.10;2.17;;;;;;;16.19;100.00;100336.56;4995154;28;20034;-68
2023/07/01 06:33:39;;;;;;;3.70;2.28;;;;;;;16.23;100.00;100339.84;4991100;28;20515;-68
2023/07/01 06:36:05;;;;;;;3.38;2.03;;;;;;;16.22;100.00;100338.97;4990371;28;20470;-67
2023/07/01 06:38:30;;;;;;;2.78;2.20;;;;;;;16.25;100.00;100340.53;4990483;28;20129;-67
2023/07/01 06:40:55;;;;;;;2.97;1.98;;;;;;;16.26;100.00;100342.25;4989945;28;20132;-67
2023/07/01 06:43:21;;;;;;;2.15;1.95;;;;;;;16.27;100.00;100328.41;4990967;28;20073;-68
2023/07/01 06:45:46;;;;;;;3.03;2.20;;;;;;;16.29;100.00;100334.56;4990706;28;20080;-68
2023/07/01 06:48:11;;;;;;;3.58;2.10;;;;;;;16.30;100.00;100333.53;4991211;28;20026;-67
2023/07/01 06:50:37;;;;;;;4.05;2.40;;;;;;;16.35;100.00;100332.19;4990555;28;20031;-67
2023/07/01 06:53:03;;;;;;;3.90;2.28;;;;;;;16.35;100.00;100327.56;5004697;28;20042;-67
2023/07/01 06:55:28;;;;;;;3.70;1.95;;;;;;;16.41;100.00;100331.53;4989620;28;20022;-66
2023/07/01 06:57:54;;;;;;;2.80;2.00;;;;;;;16.43;100.00;100326.78;4990079;28;20034;-67
2023/07/01 07:00:19;;;;;;;3.30;1.98;;;;;;;16.45;100.00;100330.19;4990539;28;20141;-67
2023/07/01 07:02:45;;;;;;;4.03;2.33;;;;;;;16.46;100.00;100334.66;4991005;28;20077;-67
2023/07/01 07:05:10;;;;;;;4.32;2.15;;;;;;;16.43;100.00;100321.28;4989693;28;20402;-68
2023/07/01 07:07:35;;;;;;;3.00;1.90;;;;;;;16.43;100.00;100335.00;4990027;28;20395;-67
2023/07/01 07:10:01;;;;;;;2.88;1.92;;;;;;;16.44;100.00;100336.72;4989430;28;20109;-68
2023/07/01 07:12:26;;;;;;;3.88;2.17;;;;;;;16.45;100.00;100332.94;4989620;28;20078;-67
2023/07/01 07:14:52;;;;;;;2.28;1.80;;;;;;;16.44;100.00;100329.34;5004728;28;20505;-66
2023/07/01 07:17:18;;;;;;;2.17;1.98;;;;;;;16.45;100.00;100333.81;4990589;28;20033;-68
2023/07/01 07:19:43;;;;;;;2.38;1.98;;;;;;;16.45;100.00;100325.56;4990348;28;20435;-67
2023/07/01 07:22:09;;;;;;;2.97;2.28;;;;;;;16.45;100.00;100325.56;4989515;28;20073;-67
2023/07/01 07:24:34;;;;;;;2.72;2.42;;;;;;;16.43;100.00;100330.38;5003870;28;20085;-67
2023/07/01 07:27:01;;;;;;;3.28;2.17;;;;;;;16.44;100.00;100320.25;5004316;28;20042;-67
2023/07/01 07:29:28;;;;;;;3.53;2.17;;;;;;;16.46;100.00;100321.81;4989805;28;20501;-67
2023/07/01 07:31:55;;;;;;;2.55;2.13;;;;;;;16.49;100.00;100318.72;4989741;28;20046;-67
2023/07/01 07:34:20;;;;;;;2.92;2.10;;;;;;;16.54;100.00;100312.75;4989533;28;20525;-67
2023/07/01 07:36:45;;;;;;;2.45;2.10;;;;;;;16.59;100.00;100321.38;5003873;28;20069;-68
2023/07/01 07:39:14;;;;;;;2.67;2.42;;;;;;;16.62;100.00;100321.03;4988139;28;20084;-67
2023/07/01 07:41:44;;;;;;;4.82;2.20;;;;;;;16.64;100.00;100318.13;4988758;28;20050;-68
2023/07/01 07:44:09;;;;;;;5.95;2.58;;;;;;;16.67;100.00;100313.19;5004068;28;20065;-67
2023/07/01 07:46:35;;;;;;;4.10;2.65;;;;;;;16.72;100.00;100315.47;4990041;28;20116;-66
2023/07/01 07:49:04;;;;;;;2.75;2.17;;;;;;;16.74;100.00;100311.53;4988974;28;20117;-66
2023/07/01 07:51:29;;;;;;;3.25;2.67;;;;;;;16.73;100.00;100312.53;4988828;28;20478;-66
2023/07/01 07:53:54;;;;;;;3.03;2.60;;;;;;;16.75;100.00;100316.00;4988921;28;20069;-68
2023/07/01 07:56:20;;;;;;;4.22;2.40;;;;;;;16.80;100.00;100310.03;4987155;28;20042;-67
2023/07/01 07:58:45;;;;;;;9.80;2.30;;;;;;;16.78;100.00;100310.16;4989472;28;20104;-69
2023/07/01 08:01:12;;;;;;;4.32;2.78;;;;;;;16.80;100.00;100307.28;4990417;28;20048;-68
2023/07/01 08:03:38;;;;;;;5.95;2.63;;;;;;;16.85;100.00;100306.78;5007662;28;20053;-67
2023/07/01 08:06:04;;;;;;;4.40;2.80;;;;;;;16.87;100.00;100302.81;5008111;28;20493;-67
2023/07/01 08:08:30;;;;;;;3.97;2.75;;;;;;;16.93;100.00;100309.56;5003150;28;20039;-67
2023/07/01 08:10:55;;;;;;;4.57;2.55;;;;;;;17.04;100.00;100309.25;4987933;28;20049;-67
2023/07/01 08:13:20;;;;;;;3.58;2.60;;;;;;;17.09;100.00;100309.63;5004276;28;20156;-67
2023/07/01 08:15:47;;;;;;;4.55;2.67;;;;;;;17.14;100.00;100303.63;4989179;28;20030;-68
2023/07/01 08:18:12;;;;;;;2.67;2.45;;;;;;;17.21;100.00;100307.44;4989349;28;20037;-67
2023/07/01 08:20:38;;;;;;;2.35;2.15;;;;;;;17.25;100.00;100303.28;4988317;28;20116;-67
2023/07/01 08:23:04;;;;;;;2.38;2.03;;;;;;;17.32;100.00;100304.34;4988145;28;20153;-67
2023/07/01 08:25:29;;;;;;;2.95;2.55;;;;;;;17.41;100.00;100305.25;4987938;28;20037;-67
2023/07/01 08:27:55;;;;;;;2.83;2.45;;;;;;;17.53;100.00;100306.63;4988185;28;20038;-67
2023/07/01 08:30:22;;;;;;;2.10;1.90;;;;;;;17.66;99.41;100300.63;4988555;28;20042;-67
2023/07/01 08:32:47;;;;;;;3.00;2.25;;;;;;;17.72;98.34;100299.94;5003013;28;20039;-68
2023/07/01 08:35:13;;;;;;;5.90;1.90;;;;;;;17.78;99.70;100302.06;4988529;28;20104;-67
2023/07/01 08:37:38;;;;;;;2.88;1.98;;;;;;;17.82;98.29;100296.03;4987959;28;20409;-67
2023/07/01 08:40:05;;;;;;;2.35;2.15;;;;;;;17.83;100.00;100297.75;4987764;28;20069;-67
2023/07/01 08:42:37;;;;;;;2.35;1.60;;;;;;;17.82;99.54;100306.19;4988857;28;20034;-68
2023/07/01 08:45:04;;;;;;;1.70;1.55;;;;;;;17.80;99.60;100306.34;4988251;28;20038;-68
2023/07/01 08:47:32;;;;;;;3.95;1.80;;;;;;;17.79;99.51;100299.13;5002467;28;20026;-67
2023/07/01 08:50:05;;;;;;;2.28;1.70;;;;;;;17.83;99.78;100294.16;4988074;28;20056;-69
2023/07/01 08:52:37;;;;;;;2.25;1.92;;;;;;;17.85;99.45;100300.31;4987675;28;20038;-68
2023/07/01 08:55:04;;;;;;;2.92;1.50;;;;;;;17.87;99.99;100298.28;4987513;28;20442;-68
2023/07/01 08:57:29;;;;;;;1.80;1.50;;;;;;;17.96;100.00;100289.00;5006972;28;20428;-68
2023/07/01 08:59:55;;;;;;;3.65;1.65;;;;;;;17.97;100.00;100296.22;5007870;28;20041;-68
2023/07/01 09:02:23;;;;;;;2.40;1.50;;;;;;;17.98;99.05;100294.31;4994262;28;20535;-68
2023/07/01 09:04:49;;;;;;;2.85;1.60;;;;;;;18.01;100.00;100289.34;5002673;28;20054;-70
2023/07/01 09:07:14;;;;;;;3.50;1.60;;;;;;;18.10;100.00;100290.19;4987696;28;20689;-68
2023/07/01 09:09:39;;;;;;;2.50;1.35;;;;;;;18.24;100.00;100283.97;5002192;28;20061;-69
2023/07/01 09:12:05;;;;;;;2.83;1.50;;;;;;;18.34;99.77;100294.78;4987701;28;20057;-68
2023/07/01 09:14:56;;;;;;;2.10;1.10;;;;;;;18.42;97.30;100294.78;4986178;28;20042;-68
2023/07/01 09:17:31;;;;;;;3.90;1.50;;;;;;;18.41;98.11;100306.81;4987877;28;20101;-68
2023/07/01 09:20:01;;;;;;;1.67;1.30;;;;;;;18.35;99.50;100294.59;4987711;28;20465;-69
2023/07/01 09:22:28;;;;;;;1.40;1.30;;;;;;;18.35;98.86;100288.25;4985348;28;20049;-68
2023/07/01 09:24:54;;;;;;;2.08;1.38;;;;;;;18.38;98.77;100287.06;4987021;28;20383;-69
2023/07/01 09:27:19;;;;;;;2.15;1.48;;;;;;;18.35;100.00;100285.50;4987362;28;20053;-68
2023/07/01 09:29:45;;;;;;;1.15;1.05;;;;;;;18.46;100.00;100285.09;4988147;28;20038;-68
2023/07/01 09:32:10;;;;;;;1.50;1.40;;;;;;;18.55;99.50;100285.94;4988586;28;20383;-68
2023/07/01 09:34:57;;;;;;;1.52;1.20;;;;;;;18.59;99.46;100277.16;4987503;28;20030;-68
2023/07/01 09:37:26;;;;;;;1.42;1.33;;;;;;;18.69;100.00;100281.63;4987136;28;20576;-68
2023/07/01 09:39:52;;;;;;;2.67;1.50;;;;;;;18.62;100.00;100275.94;4986941;28;20042;-68
2023/07/01 09:42:18;;;;;;;2.22;1.30;;;;;;;18.59;100.00;100273.53;4987249;28;20542;-68
2023/07/01 09:45:07;;;;;;;1.25;1.15;;;;;;;18.56;100.00;100268.41;4988637;28;20581;-69
2023/07/01 09:47:33;;;;;;;1.17;1.08;;;;;;;18.53;100.00;100269.59;4988059;28;20109;-69
2023/07/01 09:49:58;;;;;;;1.35;1.25;;;;;;;18.56;99.30;100268.41;4987835;28;20046;-69
2023/07/01 09:52:33;;;;;;;1.50;1.40;;;;;;;18.54;99.51;100257.53;4986606;28;20068;-69
2023/07/01 09:55:02;;;;;;;1.45;1.35;;;;;;;18.57;99.87;100276.50;4987299;28;20034;-68
2023/07/01 09:57:28;;;;;;;2.15;1.40;;;;;;;18.53;100.00;100274.25;4989486;28;20582;-69
2023/07/01 09:59:53;;;;;;;3.25;1.40;;;;;;;18.53;100.00;100277.00;4991710;28;20034;-68
2023/07/01 10:02:19;;;;;;;1.65;1.55;;;;;;;18.56;100.00;100273.91;4992157;28;20033;-69
2023/07/01 10:04:44;;;;;;;1.60;1.45;;;;;;;18.55;100.00;100278.53;4991641;28;20062;-68
2023/07/01 10:07:10;;;;;;;2.22;1.80;;;;;;;18.56;100.00;100272.03;5005282;28;20133;-69
2023/07/01 10:09:35;;;;;;;2.63;1.58;;;;;;;18.57;100.00;100267.38;4990363;28;20483;-69
2023/07/01 10:12:01;;;;;;;1.85;1.60;;;;;;;18.65;100.00;100267.31;4990929;28;20509;-68
2023/07/01 10:14:33;;;;;;;1.63;1.50;;;;;;;18.66;100.00;100263.53;4991036;28;20038;-68
2023/07/01 10:16:58;;;;;;;1.70;1.60;;;;;;;18.70;99.40;100267.69;5005960;28;20567;-68
2023/07/01 10:19:32;;;;;;;2.88;2.00;;;;;;;18.70;99.77;100258.53;4990644;28;20100;-68
2023/07/01 10:22:23;;;;;;;2.17;1.63;;;;;;;18.80;100.00;100267.50;4990084;28;20049;-68
2023/07/01 10:25:07;;;;;;;2.45;1.85;;;;;;;18.83;100.00;100262.44;4990832;28;20056;-68
2023/07/01 10:27:59;;;;;;;2.58;1.90;;;;;;;18.93;100.00;100261.38;5005385;28;20042;-68
2023/07/01 10:30:44;;;;;;;4.85;1.73;;;;;;;18.86;100.00;100252.97;4990324;28;20089;-68
2023/07/01 10:33:33;;;;;;;2.25;1.80;;;;;;;18.85;99.77;100259.53;5005488;28;20053;-68
2023/07/01 10:36:09;;;;;;;2.58;1.60;;;;;;;18.93;100.00;100264.13;4990584;28;20117;-69
2023/07/01 10:38:36;;;;;;;2.13;1.70;;;;;;;18.95;100.00;100254.66;5005170;28;20046;-69
2023/07/01 10:41:02;;;;;;;2.40;1.95;;;;;;;19.04;100.00;100258.25;4989774;28;20043;-68
2023/07/01 10:43:29;;;;;;;2.88;2.15;;;;;;;19.09;100.00;100251.13;4990529;28;20107;-67
2023/07/01 10:46:20;;;;;;;3.70;2.10;;;;;;;19.24;100.00;100255.88;4990629;28;20490;-68
2023/07/01 10:49:03;;;;;;;2.53;2.20;;;;;;;19.41;100.00;100248.38;5010034;28;20098;-68
2023/07/01 10:51:31;;;;;;;4.43;2.28;;;;;;;19.60;99.92;100254.28;5004485;28;20088;-68
2023/07/01 10:53:58;;;;;;;3.78;2.72;;;;;;;19.69;98.65;100248.69;4989729;28;20061;-68
2023/07/01 10:56:24;;;;;;;4.57;3.38;;;;;;;19.75;98.86;100253.47;5005127;28;20049;-68
2023/07/01 10:59:21;;;;;;;4.38;2.90;;;;;;;19.80;98.80;100249.09;4990870;28;20558;-68
2023/07/01 11:01:57;;;;;;;5.32;3.13;;;;;;;19.84;97.55;100244.94;5007338;28;20053;-68
2023/07/01 11:04:24;;;;;;;4.18;3.15;;;;;;;19.97;97.58;100244.31;5009791;28;20065;-68
2023/07/01 11:06:51;;;;;;;4.63;3.30;;;;;;;20.00;95.45;100246.66;5008614;28;20026;-69
2023/07/01 11:09:28;;;;;;;3.80;3.03;;;;;;;19.97;95.07;100255.34;5008964;28;20037;-68
2023/07/01 11:11:55;;;;;;;5.50;3.85;;;;;;;19.93;94.95;100247.63;5008695;28;20049;-68
2023/07/01 11:14:29;;;;;;;5.55;3.60;;;;;;;20.12;95.68;100245.19;5009505;28;20498;-69
2023/07/01 11:17:04;;;;;;;5.28;3.65;;;;;;;20.57;96.95;100248.03;5000892;28;20096;-69
2023/07/01 11:19:29;;;;;;;5.38;3.80;;;;;;;20.96;98.14;100239.41;4988431;28;20042;-68
2023/07/01 11:21:55;;;;;;;4.95;4.22;;;;;;;21.29;92.88;100237.03;4989381;28;20462;-68
2023/07/01 11:24:26;;;;;;;5.25;4.50;;;;;;;21.48;90.15;100243.00;4989311;28;20499;-69